logo
Search for airport 
image banner adimage banner adimage banner ad
image banner ad

SJ3F - Aldeia Kumenê

Located in Oiapoque, Brazil

ICAO - SJ3F, IATA -

Data provided by Airmate  

General information

Coordinates: N3°29'22" W51°29'5"
Elevation is 68 feet MSL.
 
View others Airports in Amapá

Operational data

Special qualification required
Current time UTC:
Current local time:
Weather at : SBOI - Oiapoque ( 54 km )
METAR: SBOI 191700Z AUTO 06005KT 020V110 9000 BKN022 30/25 Q1010
TAF: TAF SBOI 191628Z 1918/2006 04005KT 9999 SCT009 BKN016 TX29/1918Z TN26/2006Z TEMPO 1918/1920 10008KT 7000 BKN007 BKN020 TEMPO 2003/2006 07005KT 6000 BKN005 BKN020 RMK PGA
View NOTAMs / SUP AIP / TFR affecting this airport [VIEW]
Communications frequencies: [VIEW]

Runways:

RWY identifierQFULength (ft)Width (ft)SurfaceLDA (ft)
09196959EARTH
27196959EARTH

Airport contact information

Address: Oiapoque Brazil

Satellite view of SJ3F